Time;durP1;ratioP1;P1;durP2;ratioP2;P2;SDS_P1;SDS_P2;PMS_P1;PMS_P2;Temp;Humidity;BMP_temperature;BMP_pressure;BME280_temperature;BME280_humidity;BME280_pressure;Samples;Min_cycle;Max_cycle;Signal;HPM_P1;HPM_P2
2022/01/16 00:02:09;;;;;;;17.40;6.95;;;2.10;99.90;;;;;;6768976;87;20381;-77
2022/01/16 00:11:35;;;;;;;10.25;5.28;;;2.10;99.90;;;;;;6765032;87;20156;-76
2022/01/16 00:21:39;;;;;;;16.95;6.90;;;2.00;99.90;;;;;;6767048;87;20368;-76
2022/01/16 00:31:41;;;;;;;11.90;5.40;;;2.00;99.90;;;;;;6757425;87;20301;-76
2022/01/16 00:41:43;;;;;;;11.75;6.15;;;2.00;99.90;;;;;;6770586;87;20238;-76
2022/01/16 00:51:44;;;;;;;11.65;6.20;;;2.00;99.90;;;;;;6771854;87;20187;-76
2022/01/16 01:01:45;;;;;;;16.00;7.32;;;2.00;99.90;;;;;;6770041;87;20304;-76
2022/01/16 01:11:49;;;;;;;14.77;7.80;;;2.00;99.90;;;;;;6774290;87;20305;-76
2022/01/16 01:21:50;;;;;;;15.18;7.43;;;2.10;99.90;;;;;;6774347;87;20300;-77
2022/01/16 01:31:52;;;;;;;12.15;5.82;;;2.10;99.90;;;;;;6774271;87;20188;-77
2022/01/16 01:42:04;;;;;;;13.50;6.25;;;2.20;99.90;;;;;;6773918;87;20202;-77
2022/01/16 01:52:05;;;;;;;13.57;5.87;;;2.20;99.90;;;;;;6768842;87;20183;-76
2022/01/16 02:02:06;;;;;;;10.05;4.82;;;2.10;99.90;;;;;;6773011;87;20217;-76
2022/01/16 02:12:08;;;;;;;8.45;4.40;;;2.20;99.90;;;;;;6779566;87;20556;-76
2022/01/16 02:32:49;;;;;;;7.37;3.78;;;2.30;99.90;;;;;;6775778;87;20206;-76
2022/01/16 02:42:51;;;;;;;6.00;3.40;;;2.20;99.90;;;;;;6771947;87;20189;-77
2022/01/16 02:52:52;;;;;;;6.50;3.65;;;2.30;99.90;;;;;;6768121;87;20297;-77
2022/01/16 03:02:53;;;;;;;8.43;3.85;;;2.20;99.90;;;;;;6770825;87;20208;-77
2022/01/16 03:12:54;;;;;;;6.45;2.83;;;2.20;99.90;;;;;;6765312;87;20192;-76
2022/01/16 03:22:55;;;;;;;7.40;3.90;;;2.20;99.90;;;;;;6770610;87;20240;-77
2022/01/16 03:32:55;;;;;;;8.15;3.80;;;2.10;99.90;;;;;;6771970;87;20285;-77
2022/01/16 03:43:04;;;;;;;7.00;3.28;;;2.10;99.90;;;;;;6771771;87;20204;-77
2022/01/16 03:53:05;;;;;;;7.05;3.40;;;2.20;99.90;;;;;;6771283;87;20179;-76
2022/01/16 04:03:05;;;;;;;7.00;3.67;;;2.10;99.90;;;;;;6771636;87;20652;-77
2022/01/16 04:13:07;;;;;;;7.00;3.57;;;2.20;99.90;;;;;;6766987;87;20200;-76
2022/01/16 04:23:10;;;;;;;8.05;4.18;;;2.20;99.90;;;;;;6769064;87;20479;-76
2022/01/16 04:33:10;;;;;;;10.68;4.50;;;2.20;99.90;;;;;;6769343;87;20219;-77
2022/01/16 04:43:47;;;;;;;10.93;5.20;;;2.20;99.90;;;;;;6771598;77;20239;-78
2022/01/16 04:53:48;;;;;;;14.93;6.00;;;2.20;99.90;;;;;;6739402;88;20188;-77
2022/01/16 05:03:49;;;;;;;14.10;6.57;;;2.40;99.90;;;;;;6738446;88;20225;-78
2022/01/16 05:23:50;;;;;;;16.92;7.40;;;2.30;99.90;;;;;;6738439;88;20192;-77
2022/01/16 05:33:52;;;;;;;29.27;11.75;;;2.30;99.90;;;;;;6737580;88;20940;-77
2022/01/16 05:43:53;;;;;;;27.42;10.82;;;2.40;99.90;;;;;;6737943;88;20189;-77
2022/01/16 05:53:56;;;;;;;26.08;11.27;;;2.40;99.90;;;;;;6738617;88;20265;-77
2022/01/16 06:03:57;;;;;;;27.75;11.93;;;2.30;99.90;;;;;;6734867;88;20579;-77
2022/01/16 06:13:57;;;;;;;27.98;10.82;;;2.30;99.90;;;;;;6737923;88;20258;-77
2022/01/16 06:23:58;;;;;;;28.60;11.65;;;2.50;99.90;;;;;;6737599;88;20336;-77
2022/01/16 06:34:00;;;;;;;25.73;11.10;;;2.50;99.90;;;;;;6737865;88;20628;-77
2022/01/16 06:44:01;;;;;;;29.63;12.65;;;2.60;99.90;;;;;;6737449;88;20209;-77
2022/01/16 06:54:03;;;;;;;26.83;11.90;;;2.50;99.90;;;;;;6737189;88;20227;-77
2022/01/16 07:04:04;;;;;;;30.65;12.15;;;2.50;99.90;;;;;;6738078;88;20316;-78
2022/01/16 07:14:04;;;;;;;36.90;13.30;;;2.60;99.90;;;;;;6720978;88;20201;-77
2022/01/16 07:24:05;;;;;;;30.50;13.02;;;2.80;99.90;;;;;;6725767;88;20511;-77
2022/01/16 07:34:09;;;;;;;34.80;14.63;;;2.80;99.90;;;;;;6737688;88;20220;-78
2022/01/16 07:44:09;;;;;;;32.53;13.80;;;2.90;99.90;;;;;;6721796;88;20207;-78
2022/01/16 07:54:10;;;;;;;33.80;14.48;;;3.10;99.90;;;;;;6718989;88;20196;-77
2022/01/16 08:04:10;;;;;;;30.70;12.57;;;3.20;99.90;;;;;;6719348;88;20548;-77
2022/01/16 08:14:11;;;;;;;35.28;13.77;;;3.20;99.90;;;;;;6718865;88;20251;-77
2022/01/16 08:24:11;;;;;;;31.80;13.75;;;3.20;99.90;;;;;;6718715;88;20247;-77
2022/01/16 08:34:12;;;;;;;32.25;13.25;;;3.30;99.90;;;;;;6720081;88;20256;-78
2022/01/16 08:44:12;;;;;;;30.50;13.25;;;3.40;99.90;;;;;;6738034;88;20239;-78
2022/01/16 08:54:13;;;;;;;36.00;14.93;;;3.50;99.90;;;;;;6738331;88;20670;-78
2022/01/16 09:04:13;;;;;;;34.80;15.55;;;3.60;99.90;;;;;;6740012;88;20196;-78
2022/01/16 09:14:15;;;;;;;36.75;16.67;;;3.80;99.90;;;;;;6741134;88;20222;-78
2022/01/16 09:24:15;;;;;;;38.92;17.15;;;3.80;99.90;;;;;;6739830;88;20329;-78
2022/01/16 09:34:16;;;;;;;31.83;16.12;;;4.10;99.90;;;;;;6738622;88;20183;-78
2022/01/16 09:44:17;;;;;;;33.25;15.90;;;4.40;99.90;;;;;;6737382;88;20222;-77
2022/01/16 09:54:20;;;;;;;33.97;15.02;;;4.60;99.90;;;;;;6720956;88;20186;-77
2022/01/16 10:04:35;;;;;;;29.15;13.75;;;4.90;99.90;;;;;;6716809;88;20312;-77
2022/01/16 10:14:45;;;;;;;29.15;12.77;;;4.90;99.90;;;;;;6720091;88;20269;-78
2022/01/16 10:24:46;;;;;;;28.40;11.73;;;5.10;99.90;;;;;;6722736;88;20276;-79
2022/01/16 10:34:50;;;;;;;26.70;12.13;;;5.10;99.90;;;;;;6726345;88;20254;-78
2022/01/16 10:45:12;;;;;;;21.37;10.40;;;5.30;99.90;;;;;;6717071;77;20341;-76
2022/01/16 10:55:13;;;;;;;20.20;9.40;;;5.70;99.90;;;;;;6703461;88;20196;-77
2022/01/16 11:05:19;;;;;;;19.42;8.82;;;5.70;99.90;;;;;;6707041;88;20179;-76
2022/01/16 11:15:20;;;;;;;19.23;9.10;;;5.70;99.90;;;;;;6710712;88;20216;-76
2022/01/16 11:25:31;;;;;;;19.48;8.50;;;5.70;99.90;;;;;;6710669;88;20291;-77
2022/01/16 11:35:34;;;;;;;17.52;8.88;;;5.90;99.90;;;;;;6712930;88;20167;-79
2022/01/16 11:46:04;;;;;;;19.25;9.30;;;6.00;99.90;;;;;;6718219;88;20669;-78
2022/01/16 11:56:37;;;;;;;20.60;10.27;;;6.00;99.90;;;;;;6698299;88;20811;-80
2022/01/16 12:06:37;;;;;;;19.10;8.75;;;6.00;99.90;;;;;;6686004;88;20245;-77
2022/01/16 12:16:46;;;;;;;22.20;9.90;;;6.00;99.90;;;;;;6701524;88;20186;-77
2022/01/16 12:26:47;;;;;;;21.30;10.23;;;6.10;99.90;;;;;;6697254;88;20617;-76
2022/01/16 12:36:47;;;;;;;22.70;10.43;;;6.20;99.90;;;;;;6706874;88;20205;-77
2022/01/16 12:46:52;;;;;;;23.40;11.27;;;6.20;99.90;;;;;;6708207;88;20198;-77
2022/01/16 12:56:53;;;;;;;20.90;10.27;;;6.20;99.90;;;;;;6705013;88;20269;-77
2022/01/16 13:06:59;;;;;;;20.02;10.25;;;6.30;99.90;;;;;;6702857;88;20696;-77
2022/01/16 13:17:03;;;;;;;21.87;10.33;;;6.30;99.90;;;;;;6691023;88;20220;-77
2022/01/16 13:27:10;;;;;;;20.23;10.25;;;6.20;99.90;;;;;;6700240;88;20679;-77
2022/01/16 13:37:15;;;;;;;;;;;6.20;99.90;;;;;;6704252;88;20311;-77
2022/01/16 13:47:21;;;;;;;18.27;8.30;;;6.00;99.90;;;;;;6700387;88;20176;-77
2022/01/16 13:57:32;;;;;;;11.87;5.67;;;6.10;99.90;;;;;;6704311;88;20171;-77
2022/01/16 14:07:33;;;;;;;12.77;5.75;;;5.90;99.90;;;;;;6704821;88;20204;-76
2022/01/16 14:17:42;;;;;;;10.23;5.18;;;5.90;99.90;;;;;;6705251;88;20658;-77
2022/01/16 14:27:43;;;;;;;10.00;5.32;;;5.90;99.90;;;;;;6704053;88;20186;-76
2022/01/16 14:37:44;;;;;;;9.52;4.93;;;5.80;99.90;;;;;;6704200;88;20189;-77
2022/01/16 14:47:44;;;;;;;8.20;4.32;;;5.90;99.90;;;;;;6703502;88;20210;-77
2022/01/16 14:57:45;;;;;;;7.68;4.10;;;5.80;99.90;;;;;;6703959;88;20722;-77
2022/01/16 15:07:46;;;;;;;7.18;3.97;;;5.70;99.90;;;;;;6702694;88;20253;-77
2022/01/16 15:17:52;;;;;;;7.15;3.67;;;5.50;99.90;;;;;;6714543;88;20515;-77
2022/01/16 15:27:53;;;;;;;;;;;5.50;99.90;;;;;;6707093;88;20209;-77
2022/01/16 15:37:54;;;;;;;6.50;3.80;;;5.40;99.90;;;;;;6701804;88;20124;-77
2022/01/16 15:47:54;;;;;;;8.20;4.55;;;5.30;99.90;;;;;;6704171;88;22426;-77
2022/01/16 15:57:55;;;;;;;8.93;4.70;;;5.30;99.90;;;;;;6705897;88;20198;-79
2022/01/16 16:07:55;;;;;;;9.98;4.93;;;5.30;99.90;;;;;;6701535;88;20220;-79
2022/01/16 16:17:56;;;;;;;9.93;5.50;;;5.30;99.90;;;;;;6706267;88;20181;-78
2022/01/16 16:27:59;;;;;;;13.98;6.25;;;5.20;99.90;;;;;;6707818;88;20334;-79
2022/01/16 16:37:59;;;;;;;12.00;5.95;;;5.20;99.90;;;;;;6707947;88;20209;-79
2022/01/16 16:48:20;;;;;;;11.30;5.90;;;5.20;99.90;;;;;;6738614;77;20322;-78
2022/01/16 16:58:21;;;;;;;11.25;5.30;;;5.40;99.90;;;;;;6760346;88;20192;-78
2022/01/16 17:08:22;;;;;;;11.30;6.03;;;5.10;99.90;;;;;;6759107;88;20285;-78
2022/01/16 17:18:24;;;;;;;11.20;5.80;;;5.30;99.90;;;;;;6746998;88;20201;-78
2022/01/16 17:28:25;;;;;;;10.93;5.97;;;5.30;99.90;;;;;;6750771;88;20193;-79
2022/01/16 17:38:25;;;;;;;12.15;6.07;;;5.30;99.90;;;;;;6750509;88;20274;-79
2022/01/16 17:48:26;;;;;;;11.20;6.30;;;5.30;99.90;;;;;;6767344;87;20201;-79
2022/01/16 17:58:28;;;;;;;10.70;5.40;;;5.30;99.90;;;;;;6747775;88;20251;-79
2022/01/16 18:08:29;;;;;;;11.65;5.65;;;5.20;99.90;;;;;;6750374;88;20217;-79
2022/01/16 18:18:31;;;;;;;10.30;4.95;;;5.20;99.90;;;;;;6749844;88;20242;-79
2022/01/16 18:28:31;;;;;;;10.65;5.82;;;5.30;99.90;;;;;;6748360;88;20222;-79
2022/01/16 18:38:33;;;;;;;11.40;5.50;;;5.40;99.90;;;;;;6746570;88;20193;-78
2022/01/16 18:48:39;;;;;;;11.63;5.32;;;5.40;99.90;;;;;;6741497;88;20611;-78
2022/01/16 18:58:40;;;;;;;10.57;5.83;;;5.40;99.90;;;;;;6744961;88;20197;-78
2022/01/16 19:08:40;;;;;;;10.15;5.15;;;5.40;99.90;;;;;;6752225;88;20194;-79
2022/01/16 19:18:41;;;;;;;10.48;5.60;;;5.40;99.90;;;;;;6754928;88;20211;-78
2022/01/16 19:28:42;;;;;;;11.20;5.75;;;5.30;99.90;;;;;;6742907;88;20208;-78
2022/01/16 19:38:42;;;;;;;11.52;6.25;;;5.30;99.90;;;;;;6751449;88;20773;-78
2022/01/16 19:48:43;;;;;;;13.93;6.53;;;5.40;99.90;;;;;;6760877;88;20226;-78
2022/01/16 19:58:44;;;;;;;10.93;6.22;;;5.40;99.90;;;;;;6769697;88;20175;-79
2022/01/16 20:08:45;;;;;;;13.43;6.60;;;5.40;99.90;;;;;;6769726;88;20205;-79
2022/01/16 20:18:45;;;;;;;13.00;6.57;;;5.40;99.90;;;;;;6766553;88;20233;-80
2022/01/16 20:28:46;;;;;;;14.32;6.85;;;5.30;99.90;;;;;;6769385;88;20294;-79
2022/01/16 20:38:46;;;;;;;13.48;6.87;;;5.40;99.90;;;;;;6764267;88;20703;-79
2022/01/16 20:48:47;;;;;;;15.10;7.80;;;5.40;99.90;;;;;;6765351;88;20195;-79
2022/01/16 20:58:48;;;;;;;13.62;6.82;;;5.40;99.90;;;;;;6758422;88;20205;-78
2022/01/16 21:08:49;;;;;;;17.37;7.57;;;5.40;99.90;;;;;;6762874;88;20232;-80
2022/01/16 21:18:50;;;;;;;15.20;7.30;;;5.40;99.90;;;;;;6768858;87;20486;-79
2022/01/16 21:28:51;;;;;;;14.00;7.25;;;5.30;99.90;;;;;;6765952;87;20205;-79
2022/01/16 21:38:53;;;;;;;13.43;7.12;;;5.20;99.90;;;;;;6765780;88;20187;-78
2022/01/16 21:48:53;;;;;;;13.93;7.10;;;5.10;99.90;;;;;;6780101;88;20682;-79
2022/01/16 21:58:54;;;;;;;15.60;7.68;;;5.10;99.90;;;;;;6776976;88;20266;-79
2022/01/16 22:08:54;;;;;;;13.80;7.07;;;5.10;99.90;;;;;;6776989;87;20204;-79
2022/01/16 22:18:55;;;;;;;14.90;6.87;;;5.10;99.90;;;;;;6774379;88;20199;-79
2022/01/16 22:29:01;;;;;;;13.15;6.97;;;5.20;99.90;;;;;;6777496;88;20203;-78
2022/01/16 22:39:02;;;;;;;;;;;5.20;99.90;;;;;;6778087;88;20209;-79
2022/01/16 23:00:07;;;;;;;16.52;8.23;;;5.30;99.90;;;;;;6727067;88;20555;-76
2022/01/16 23:10:08;;;;;;;17.87;8.90;;;5.30;99.90;;;;;;6715328;88;20334;-77
2022/01/16 23:20:10;;;;;;;19.55;8.95;;;5.30;99.90;;;;;;6723535;88;20178;-76
2022/01/16 23:30:11;;;;;;;22.80;10.52;;;5.30;99.90;;;;;;6721962;88;20292;-77
2022/01/16 23:40:18;;;;;;;25.05;10.60;;;5.20;99.90;;;;;;6724987;88;20205;-77
2022/01/16 23:50:19;;;;;;;21.92;10.00;;;5.20;99.90;;;;;;6726045;88;20197;-77
